sensor_id;sensor_type;location;lat;lon;timestamp;temperature;humidity
488;DHT22;16586;48.976;9.584;2023-03-01T00:00:07;0.50;47.30
488;DHT22;16586;48.976;9.584;2023-03-01T00:02:34;0.40;46.50
488;DHT22;16586;48.976;9.584;2023-03-01T00:05:01;0.40;47.80
488;DHT22;16586;48.976;9.584;2023-03-01T00:07:27;0.70;48.10
488;DHT22;16586;48.976;9.584;2023-03-01T00:09:56;0.40;46.80
488;DHT22;16586;48.976;9.584;2023-03-01T00:12:22;-0.50;47.50
488;DHT22;16586;48.976;9.584;2023-03-01T00:14:49;0.10;47.50
488;DHT22;16586;48.976;9.584;2023-03-01T00:17:16;0.50;50.00
488;DHT22;16586;48.976;9.584;2023-03-01T00:19:43;0.20;46.60
488;DHT22;16586;48.976;9.584;2023-03-01T00:22:10;-0.10;47.40
488;DHT22;16586;48.976;9.584;2023-03-01T00:24:37;0.30;48.10
488;DHT22;16586;48.976;9.584;2023-03-01T00:27:05;0.40;48.00
488;DHT22;16586;48.976;9.584;2023-03-01T00:29:32;0.30;47.20
488;DHT22;16586;48.976;9.584;2023-03-01T00:31:59;-0.10;47.10
488;DHT22;16586;48.976;9.584;2023-03-01T00:34:26;0.10;48.00
488;DHT22;16586;48.976;9.584;2023-03-01T00:36:53;2.00;49.50
488;DHT22;16586;48.976;9.584;2023-03-01T00:39:19;0.10;47.10
488;DHT22;16586;48.976;9.584;2023-03-01T00:41:46;0.10;47.80
488;DHT22;16586;48.976;9.584;2023-03-01T00:44:14;0.70;48.80
488;DHT22;16586;48.976;9.584;2023-03-01T00:46:41;0.00;47.20
488;DHT22;16586;48.976;9.584;2023-03-01T00:49:08;0.90;48.10
488;DHT22;16586;48.976;9.584;2023-03-01T00:51:35;1.90;49.60
488;DHT22;16586;48.976;9.584;2023-03-01T00:54:02;-0.30;48.30
488;DHT22;16586;48.976;9.584;2023-03-01T00:56:30;0.80;47.20
488;DHT22;16586;48.976;9.584;2023-03-01T00:58:57;0.30;48.20
488;DHT22;16586;48.976;9.584;2023-03-01T01:01:27;-0.60;47.20
488;DHT22;16586;48.976;9.584;2023-03-01T01:03:57;0.20;47.10
488;DHT22;16586;48.976;9.584;2023-03-01T01:06:26;0.50;47.90
488;DHT22;16586;48.976;9.584;2023-03-01T01:08:54;-0.10;47.00
488;DHT22;16586;48.976;9.584;2023-03-01T01:11:21;0.30;47.20
488;DHT22;16586;48.976;9.584;2023-03-01T01:13:48;-0.20;47.10
488;DHT22;16586;48.976;9.584;2023-03-01T01:16:27;1.60;49.60
488;DHT22;16586;48.976;9.584;2023-03-01T01:18:54;0.00;48.90
488;DHT22;16586;48.976;9.584;2023-03-01T01:21:23;-0.50;47.10
488;DHT22;16586;48.976;9.584;2023-03-01T01:23:50;-0.60;48.20
488;DHT22;16586;48.976;9.584;2023-03-01T01:26:21;-0.20;48.00
488;DHT22;16586;48.976;9.584;2023-03-01T01:28:48;0.50;48.60
488;DHT22;16586;48.976;9.584;2023-03-01T01:31:15;1.10;49.40
488;DHT22;16586;48.976;9.584;2023-03-01T01:33:44;0.00;47.80
488;DHT22;16586;48.976;9.584;2023-03-01T01:36:11;0.40;49.30
488;DHT22;16586;48.976;9.584;2023-03-01T01:38:38;0.10;48.40
488;DHT22;16586;48.976;9.584;2023-03-01T01:41:08;0.60;50.30
488;DHT22;16586;48.976;9.584;2023-03-01T01:43:38;0.10;47.70
488;DHT22;16586;48.976;9.584;2023-03-01T01:46:10;0.30;47.90
488;DHT22;16586;48.976;9.584;2023-03-01T01:48:43;-0.10;46.90
488;DHT22;16586;48.976;9.584;2023-03-01T01:51:15;2.60;49.90
488;DHT22;16586;48.976;9.584;2023-03-01T01:53:45;1.00;47.80
488;DHT22;16586;48.976;9.584;2023-03-01T01:56:15;1.80;48.50
488;DHT22;16586;48.976;9.584;2023-03-01T01:58:43;1.40;48.50
488;DHT22;16586;48.976;9.584;2023-03-01T02:01:11;1.00;48.90
488;DHT22;16586;48.976;9.584;2023-03-01T02:03:39;-0.20;48.50
488;DHT22;16586;48.976;9.584;2023-03-01T02:06:17;0.90;48.10
488;DHT22;16586;48.976;9.584;2023-03-01T02:08:47;0.70;47.00
488;DHT22;16586;48.976;9.584;2023-03-01T02:11:15;0.90;49.10
488;DHT22;16586;48.976;9.584;2023-03-01T02:13:42;0.80;48.60
488;DHT22;16586;48.976;9.584;2023-03-01T02:16:11;0.50;48.10
488;DHT22;16586;48.976;9.584;2023-03-01T02:18:41;0.50;47.70
488;DHT22;16586;48.976;9.584;2023-03-01T02:21:20;1.00;47.10
488;DHT22;16586;48.976;9.584;2023-03-01T02:23:53;-0.10;46.90
488;DHT22;16586;48.976;9.584;2023-03-01T02:26:27;0.70;48.90
488;DHT22;16586;48.976;9.584;2023-03-01T02:28:58;0.50;49.00
488;DHT22;16586;48.976;9.584;2023-03-01T02:31:25;0.30;48.70
488;DHT22;16586;48.976;9.584;2023-03-01T02:34:13;2.70;50.70
488;DHT22;16586;48.976;9.584;2023-03-01T02:36:43;0.30;47.50
488;DHT22;16586;48.976;9.584;2023-03-01T02:39:15;0.20;48.00
488;DHT22;16586;48.976;9.584;2023-03-01T02:41:47;2.90;49.90
488;DHT22;16586;48.976;9.584;2023-03-01T02:44:25;2.30;49.40
488;DHT22;16586;48.976;9.584;2023-03-01T02:46:56;1.00;49.60
488;DHT22;16586;48.976;9.584;2023-03-01T02:49:25;1.50;48.10
488;DHT22;16586;48.976;9.584;2023-03-01T02:55:01;2.20;48.80
488;DHT22;16586;48.976;9.584;2023-03-01T02:57:30;0.70;48.20
488;DHT22;16586;48.976;9.584;2023-03-01T03:00:03;0.40;49.40
488;DHT22;16586;48.976;9.584;2023-03-01T03:02:33;0.90;48.70
488;DHT22;16586;48.976;9.584;2023-03-01T03:05:10;0.40;47.90
488;DHT22;16586;48.976;9.584;2023-03-01T03:07:39;0.80;49.00
488;DHT22;16586;48.976;9.584;2023-03-01T03:10:09;0.70;48.30
488;DHT22;16586;48.976;9.584;2023-03-01T03:12:37;1.00;50.40
488;DHT22;16586;48.976;9.584;2023-03-01T03:15:07;2.80;49.40
488;DHT22;16586;48.976;9.584;2023-03-01T03:17:35;0.90;49.20
488;DHT22;16586;48.976;9.584;2023-03-01T03:20:07;1.10;49.30
488;DHT22;16586;48.976;9.584;2023-03-01T03:22:37;1.00;49.20
488;DHT22;16586;48.976;9.584;2023-03-01T03:25:04;0.70;48.10
488;DHT22;16586;48.976;9.584;2023-03-01T03:27:34;1.00;49.10
488;DHT22;16586;48.976;9.584;2023-03-01T03:30:01;2.10;50.50
488;DHT22;16586;48.976;9.584;2023-03-01T03:32:30;0.80;50.10
488;DHT22;16586;48.976;9.584;2023-03-01T03:34:57;0.50;49.50
488;DHT22;16586;48.976;9.584;2023-03-01T03:37:23;2.00;50.40
488;DHT22;16586;48.976;9.584;2023-03-01T03:40:11;2.20;49.50
488;DHT22;16586;48.976;9.584;2023-03-01T03:42:40;1.20;48.60
488;DHT22;16586;48.976;9.584;2023-03-01T03:45:08;1.60;50.60
488;DHT22;16586;48.976;9.584;2023-03-01T03:47:40;1.30;49.80
488;DHT22;16586;48.976;9.584;2023-03-01T03:50:08;1.40;48.60
488;DHT22;16586;48.976;9.584;2023-03-01T03:52:35;1.20;48.10
488;DHT22;16586;48.976;9.584;2023-03-01T03:55:03;2.50;49.80
488;DHT22;16586;48.976;9.584;2023-03-01T03:57:34;1.20;48.60
488;DHT22;16586;48.976;9.584;2023-03-01T04:00:01;1.10;48.70
488;DHT22;16586;48.976;9.584;2023-03-01T04:02:30;1.00;48.20
488;DHT22;16586;48.976;9.584;2023-03-01T04:04:58;1.10;49.80
488;DHT22;16586;48.976;9.584;2023-03-01T04:07:25;1.60;49.60
488;DHT22;16586;48.976;9.584;2023-03-01T04:09:54;1.20;48.80
488;DHT22;16586;48.976;9.584;2023-03-01T04:12:21;2.70;51.00
488;DHT22;16586;48.976;9.584;2023-03-01T04:14:48;0.90;48.80
488;DHT22;16586;48.976;9.584;2023-03-01T04:17:15;1.40;48.70
488;DHT22;16586;48.976;9.584;2023-03-01T04:19:42;1.10;47.70
488;DHT22;16586;48.976;9.584;2023-03-01T04:22:12;1.00;48.30
488;DHT22;16586;48.976;9.584;2023-03-01T04:24:43;1.00;48.70
488;DHT22;16586;48.976;9.584;2023-03-01T04:27:11;1.20;48.10
488;DHT22;16586;48.976;9.584;2023-03-01T04:29:38;0.50;47.90
488;DHT22;16586;48.976;9.584;2023-03-01T04:32:05;1.30;48.30
488;DHT22;16586;48.976;9.584;2023-03-01T04:34:31;1.30;49.50
488;DHT22;16586;48.976;9.584;2023-03-01T04:36:58;1.20;48.80
488;DHT22;16586;48.976;9.584;2023-03-01T04:39:26;1.20;48.70
488;DHT22;16586;48.976;9.584;2023-03-01T04:41:53;3.00;51.20
488;DHT22;16586;48.976;9.584;2023-03-01T04:44:20;3.10;50.10
488;DHT22;16586;48.976;9.584;2023-03-01T04:46:48;0.60;48.50
488;DHT22;16586;48.976;9.584;2023-03-01T04:49:16;0.30;47.40
488;DHT22;16586;48.976;9.584;2023-03-01T04:51:42;1.50;48.90
488;DHT22;16586;48.976;9.584;2023-03-01T04:54:09;0.60;49.40
488;DHT22;16586;48.976;9.584;2023-03-01T04:56:38;2.20;49.30
488;DHT22;16586;48.976;9.584;2023-03-01T04:59:04;1.20;48.90
488;DHT22;16586;48.976;9.584;2023-03-01T05:01:31;2.30;50.60
488;DHT22;16586;48.976;9.584;2023-03-01T05:03:58;0.90;48.40
488;DHT22;16586;48.976;9.584;2023-03-01T05:06:28;1.50;49.10
488;DHT22;16586;48.976;9.584;2023-03-01T05:08:55;1.10;49.00
488;DHT22;16586;48.976;9.584;2023-03-01T05:11:22;1.20;49.00
488;DHT22;16586;48.976;9.584;2023-03-01T05:13:50;1.30;48.90
488;DHT22;16586;48.976;9.584;2023-03-01T05:16:20;1.40;50.00
488;DHT22;16586;48.976;9.584;2023-03-01T05:18:47;1.30;48.70
488;DHT22;16586;48.976;9.584;2023-03-01T05:21:16;0.90;48.60
488;DHT22;16586;48.976;9.584;2023-03-01T05:23:43;1.30;48.50
488;DHT22;16586;48.976;9.584;2023-03-01T05:26:10;1.20;48.80
488;DHT22;16586;48.976;9.584;2023-03-01T05:28:38;1.00;48.40
488;DHT22;16586;48.976;9.584;2023-03-01T05:31:06;1.10;49.10
488;DHT22;16586;48.976;9.584;2023-03-01T05:33:35;1.10;47.90
488;DHT22;16586;48.976;9.584;2023-03-01T05:36:03;3.80;50.80
488;DHT22;16586;48.976;9.584;2023-03-01T05:38:30;2.00;48.40
488;DHT22;16586;48.976;9.584;2023-03-01T05:40:57;1.40;49.30
488;DHT22;16586;48.976;9.584;2023-03-01T05:43:24;1.30;49.30
488;DHT22;16586;48.976;9.584;2023-03-01T05:45:50;1.00;47.50
488;DHT22;16586;48.976;9.584;2023-03-01T05:48:19;3.30;50.70
488;DHT22;16586;48.976;9.584;2023-03-01T05:50:46;4.20;51.20
488;DHT22;16586;48.976;9.584;2023-03-01T05:53:15;1.00;47.40
488;DHT22;16586;48.976;9.584;2023-03-01T05:55:43;4.00;49.30
488;DHT22;16586;48.976;9.584;2023-03-01T05:58:14;1.10;47.70
488;DHT22;16586;48.976;9.584;2023-03-01T06:00:42;2.50;48.00
488;DHT22;16586;48.976;9.584;2023-03-01T06:03:10;0.50;46.80
488;DHT22;16586;48.976;9.584;2023-03-01T06:05:39;0.90;48.70
488;DHT22;16586;48.976;9.584;2023-03-01T06:08:06;0.90;47.80
488;DHT22;16586;48.976;9.584;2023-03-01T06:10:33;1.00;47.60
488;DHT22;16586;48.976;9.584;2023-03-01T06:13:00;0.90;47.90
488;DHT22;16586;48.976;9.584;2023-03-01T06:15:27;0.80;48.40
488;DHT22;16586;48.976;9.584;2023-03-01T06:17:55;1.10;48.80
488;DHT22;16586;48.976;9.584;2023-03-01T06:20:24;1.10;47.90
488;DHT22;16586;48.976;9.584;2023-03-01T06:22:56;0.70;46.70
488;DHT22;16586;48.976;9.584;2023-03-01T06:25:24;1.00;48.70
488;DHT22;16586;48.976;9.584;2023-03-01T06:27:51;0.50;47.50
488;DHT22;16586;48.976;9.584;2023-03-01T06:30:19;0.80;47.20
488;DHT22;16586;48.976;9.584;2023-03-01T06:32:46;0.90;47.10
488;DHT22;16586;48.976;9.584;2023-03-01T06:35:15;2.00;48.00
488;DHT22;16586;48.976;9.584;2023-03-01T06:37:43;0.90;46.90
488;DHT22;16586;48.976;9.584;2023-03-01T06:40:12;0.80;47.00
488;DHT22;16586;48.976;9.584;2023-03-01T06:42:41;1.00;46.90
488;DHT22;16586;48.976;9.584;2023-03-01T06:45:09;1.10;47.00
488;DHT22;16586;48.976;9.584;2023-03-01T06:47:36;0.80;47.40
488;DHT22;16586;48.976;9.584;2023-03-01T06:50:03;0.80;47.40
488;DHT22;16586;48.976;9.584;2023-03-01T06:52:30;1.00;47.60
488;DHT22;16586;48.976;9.584;2023-03-01T06:54:57;0.60;48.20
488;DHT22;16586;48.976;9.584;2023-03-01T06:57:26;0.70;49.20
488;DHT22;16586;48.976;9.584;2023-03-01T06:59:52;0.70;47.50
488;DHT22;16586;48.976;9.584;2023-03-01T07:02:22;1.20;48.20
488;DHT22;16586;48.976;9.584;2023-03-01T07:04:49;0.70;47.50
488;DHT22;16586;48.976;9.584;2023-03-01T07:07:17;1.70;48.10
488;DHT22;16586;48.976;9.584;2023-03-01T07:09:45;3.10;50.40
488;DHT22;16586;48.976;9.584;2023-03-01T07:12:12;3.20;50.90
488;DHT22;16586;48.976;9.584;2023-03-01T07:14:41;4.00;51.70
488;DHT22;16586;48.976;9.584;2023-03-01T07:17:08;3.30;52.00
488;DHT22;16586;48.976;9.584;2023-03-01T07:19:37;1.10;47.00
488;DHT22;16586;48.976;9.584;2023-03-01T07:22:04;1.10;47.50
488;DHT22;16586;48.976;9.584;2023-03-01T07:24:33;1.20;49.10
488;DHT22;16586;48.976;9.584;2023-03-01T07:27:00;0.90;48.00
488;DHT22;16586;48.976;9.584;2023-03-01T07:29:26;2.50;49.80
488;DHT22;16586;48.976;9.584;2023-03-01T07:31:55;0.90;47.70
488;DHT22;16586;48.976;9.584;2023-03-01T07:34:22;0.80;47.60
488;DHT22;16586;48.976;9.584;2023-03-01T07:36:49;1.30;47.60
488;DHT22;16586;48.976;9.584;2023-03-01T07:39:16;1.20;50.00
488;DHT22;16586;48.976;9.584;2023-03-01T07:41:43;1.00;48.50
488;DHT22;16586;48.976;9.584;2023-03-01T07:44:09;1.20;46.70
488;DHT22;16586;48.976;9.584;2023-03-01T07:46:37;1.20;48.10
488;DHT22;16586;48.976;9.584;2023-03-01T07:49:10;1.30;46.30
488;DHT22;16586;48.976;9.584;2023-03-01T07:51:37;1.30;47.90
488;DHT22;16586;48.976;9.584;2023-03-01T07:54:05;1.10;49.50
488;DHT22;16586;48.976;9.584;2023-03-01T07:56:41;1.40;47.50
488;DHT22;16586;48.976;9.584;2023-03-01T07:59:09;0.80;47.50
488;DHT22;16586;48.976;9.584;2023-03-01T08:01:36;1.40;47.00
488;DHT22;16586;48.976;9.584;2023-03-01T08:04:03;1.60;47.00
488;DHT22;16586;48.976;9.584;2023-03-01T08:06:34;2.40;47.00
488;DHT22;16586;48.976;9.584;2023-03-01T08:09:01;1.60;45.80
488;DHT22;16586;48.976;9.584;2023-03-01T08:11:28;1.60;46.00
488;DHT22;16586;48.976;9.584;2023-03-01T08:13:55;1.70;45.80
488;DHT22;16586;48.976;9.584;2023-03-01T08:16:23;1.80;45.70
488;DHT22;16586;48.976;9.584;2023-03-01T08:18:50;1.80;45.80
488;DHT22;16586;48.976;9.584;2023-03-01T08:21:17;1.40;45.80
488;DHT22;16586;48.976;9.584;2023-03-01T08:23:46;3.10;46.50
488;DHT22;16586;48.976;9.584;2023-03-01T08:26:14;2.00;46.30
488;DHT22;16586;48.976;9.584;2023-03-01T08:28:41;2.00;46.10
488;DHT22;16586;48.976;9.584;2023-03-01T08:31:16;2.10;46.40
488;DHT22;16586;48.976;9.584;2023-03-01T08:33:43;3.10;45.60
488;DHT22;16586;48.976;9.584;2023-03-01T08:36:10;2.20;45.30
488;DHT22;16586;48.976;9.584;2023-03-01T08:38:37;2.00;44.40
488;DHT22;16586;48.976;9.584;2023-03-01T08:41:05;2.30;44.70
488;DHT22;16586;48.976;9.584;2023-03-01T08:43:32;2.30;44.30
488;DHT22;16586;48.976;9.584;2023-03-01T08:45:58;2.40;44.60
488;DHT22;16586;48.976;9.584;2023-03-01T08:48:27;2.30;44.70
488;DHT22;16586;48.976;9.584;2023-03-01T08:50:54;2.10;44.70
488;DHT22;16586;48.976;9.584;2023-03-01T08:53:24;2.50;44.50
488;DHT22;16586;48.976;9.584;2023-03-01T08:55:51;2.60;43.80
488;DHT22;16586;48.976;9.584;2023-03-01T08:58:19;2.60;44.70
488;DHT22;16586;48.976;9.584;2023-03-01T09:00:46;2.70;44.80
488;DHT22;16586;48.976;9.584;2023-03-01T09:03:12;2.70;43.80
488;DHT22;16586;48.976;9.584;2023-03-01T09:05:41;2.70;43.80
488;DHT22;16586;48.976;9.584;2023-03-01T09:08:08;2.80;43.70
488;DHT22;16586;48.976;9.584;2023-03-01T09:10:37;2.90;45.90
488;DHT22;16586;48.976;9.584;2023-03-01T09:13:04;2.80;43.30
488;DHT22;16586;48.976;9.584;2023-03-01T09:15:32;3.00;43.90
488;DHT22;16586;48.976;9.584;2023-03-01T09:18:00;3.00;43.50
488;DHT22;16586;48.976;9.584;2023-03-01T09:20:27;3.10;44.00
488;DHT22;16586;48.976;9.584;2023-03-01T09:22:54;3.10;43.30
488;DHT22;16586;48.976;9.584;2023-03-01T09:25:22;3.50;43.30
488;DHT22;16586;48.976;9.584;2023-03-01T09:27:51;2.70;42.30
488;DHT22;16586;48.976;9.584;2023-03-01T09:30:22;3.30;42.70
488;DHT22;16586;48.976;9.584;2023-03-01T09:32:51;3.50;44.10
488;DHT22;16586;48.976;9.584;2023-03-01T09:35:18;3.50;42.70
488;DHT22;16586;48.976;9.584;2023-03-01T09:37:45;3.80;43.00
488;DHT22;16586;48.976;9.584;2023-03-01T09:40:15;5.10;43.40
488;DHT22;16586;48.976;9.584;2023-03-01T09:42:51;4.60;42.30
488;DHT22;16586;48.976;9.584;2023-03-01T09:45:25;4.20;41.40
488;DHT22;16586;48.976;9.584;2023-03-01T09:47:55;4.50;41.20
488;DHT22;16586;48.976;9.584;2023-03-01T09:50:23;4.60;39.90
488;DHT22;16586;48.976;9.584;2023-03-01T09:53:00;5.10;40.50
488;DHT22;16586;48.976;9.584;2023-03-01T09:55:31;6.00;39.80
488;DHT22;16586;48.976;9.584;2023-03-01T09:58:25;5.30;39.20
488;DHT22;16586;48.976;9.584;2023-03-01T10:00:52;6.00;37.80
488;DHT22;16586;48.976;9.584;2023-03-01T10:03:26;6.00;37.00
488;DHT22;16586;48.976;9.584;2023-03-01T10:05:59;6.70;36.30
488;DHT22;16586;48.976;9.584;2023-03-01T10:08:31;7.00;36.00
488;DHT22;16586;48.976;9.584;2023-03-01T10:11:05;7.90;36.10
488;DHT22;16586;48.976;9.584;2023-03-01T10:13:41;8.00;35.80
488;DHT22;16586;48.976;9.584;2023-03-01T10:16:13;8.60;33.80
488;DHT22;16586;48.976;9.584;2023-03-01T10:18:55;9.10;33.30
488;DHT22;16586;48.976;9.584;2023-03-01T10:21:25;10.00;32.00
488;DHT22;16586;48.976;9.584;2023-03-01T10:23:53;10.90;31.70
488;DHT22;16586;48.976;9.584;2023-03-01T10:26:41;11.90;31.50
488;DHT22;16586;48.976;9.584;2023-03-01T10:29:12;13.20;28.40
488;DHT22;16586;48.976;9.584;2023-03-01T10:31:42;14.50;28.90
488;DHT22;16586;48.976;9.584;2023-03-01T10:34:16;15.80;26.60
488;DHT22;16586;48.976;9.584;2023-03-01T10:36:44;17.50;26.20
488;DHT22;16586;48.976;9.584;2023-03-01T10:39:18;18.70;24.50
488;DHT22;16586;48.976;9.584;2023-03-01T10:41:55;20.30;22.20
488;DHT22;16586;48.976;9.584;2023-03-01T10:44:41;21.60;19.60
488;DHT22;16586;48.976;9.584;2023-03-01T10:47:15;22.80;18.70
488;DHT22;16586;48.976;9.584;2023-03-01T10:49:55;23.80;17.90
488;DHT22;16586;48.976;9.584;2023-03-01T10:52:24;25.30;18.30
488;DHT22;16586;48.976;9.584;2023-03-01T10:54:53;25.80;16.60
488;DHT22;16586;48.976;9.584;2023-03-01T10:57:37;26.80;16.30
488;DHT22;16586;48.976;9.584;2023-03-01T11:00:17;28.00;16.20
488;DHT22;16586;48.976;9.584;2023-03-01T11:02:48;28.60;14.60
488;DHT22;16586;48.976;9.584;2023-03-01T11:05:24;29.20;14.20
488;DHT22;16586;48.976;9.584;2023-03-01T11:07:53;29.90;13.00
488;DHT22;16586;48.976;9.584;2023-03-01T11:10:23;30.30;11.60
488;DHT22;16586;48.976;9.584;2023-03-01T11:12:51;30.20;11.00
488;DHT22;16586;48.976;9.584;2023-03-01T11:15:25;30.60;11.30
488;DHT22;16586;48.976;9.584;2023-03-01T11:17:52;31.20;10.40
488;DHT22;16586;48.976;9.584;2023-03-01T11:20:27;31.40;10.80
488;DHT22;16586;48.976;9.584;2023-03-01T11:22:58;31.80;10.00
488;DHT22;16586;48.976;9.584;2023-03-01T11:25:30;32.20;10.00
488;DHT22;16586;48.976;9.584;2023-03-01T11:28:00;32.80;10.00
488;DHT22;16586;48.976;9.584;2023-03-01T11:30:32;33.30;9.20
488;DHT22;16586;48.976;9.584;2023-03-01T11:33:12;33.90;9.50
488;DHT22;16586;48.976;9.584;2023-03-01T11:35:47;34.20;9.20
488;DHT22;16586;48.976;9.584;2023-03-01T11:38:21;34.70;9.10
488;DHT22;16586;48.976;9.584;2023-03-01T11:40:52;35.20;8.20
488;DHT22;16586;48.976;9.584;2023-03-01T11:43:31;35.50;8.30
488;DHT22;16586;48.976;9.584;2023-03-01T11:46:29;36.20;8.10
488;DHT22;16586;48.976;9.584;2023-03-01T11:49:10;36.20;7.10
488;DHT22;16586;48.976;9.584;2023-03-01T11:51:59;36.60;6.50
488;DHT22;16586;48.976;9.584;2023-03-01T11:54:40;36.40;6.10
488;DHT22;16586;48.976;9.584;2023-03-01T11:57:15;36.00;6.20
488;DHT22;16586;48.976;9.584;2023-03-01T11:59:59;35.80;6.40
488;DHT22;16586;48.976;9.584;2023-03-01T12:02:56;35.30;5.90
488;DHT22;16586;48.976;9.584;2023-03-01T12:08:45;32.70;5.40
488;DHT22;16586;48.976;9.584;2023-03-01T12:11:28;31.40;6.20
488;DHT22;16586;48.976;9.584;2023-03-01T12:14:19;30.60;6.20
488;DHT22;16586;48.976;9.584;2023-03-01T12:16:59;28.60;6.20
488;DHT22;16586;48.976;9.584;2023-03-01T12:19:46;26.70;6.40
488;DHT22;16586;48.976;9.584;2023-03-01T12:22:24;24.60;7.00
488;DHT22;16586;48.976;9.584;2023-03-01T12:25:11;22.80;8.60
488;DHT22;16586;48.976;9.584;2023-03-01T12:28:02;20.90;9.60
488;DHT22;16586;48.976;9.584;2023-03-01T12:30:42;19.80;10.40
488;DHT22;16586;48.976;9.584;2023-03-01T12:33:19;18.80;10.90
488;DHT22;16586;48.976;9.584;2023-03-01T12:36:07;18.00;12.20
488;DHT22;16586;48.976;9.584;2023-03-01T12:38:41;16.90;12.90
488;DHT22;16586;48.976;9.584;2023-03-01T12:41:40;16.00;14.60
488;DHT22;16586;48.976;9.584;2023-03-01T12:47:07;14.10;16.00
488;DHT22;16586;48.976;9.584;2023-03-01T12:49:41;13.50;17.10
488;DHT22;16586;48.976;9.584;2023-03-01T12:52:19;13.50;20.30
488;DHT22;16586;48.976;9.584;2023-03-01T12:54:49;13.10;26.40
488;DHT22;16586;48.976;9.584;2023-03-01T12:57:28;12.90;28.90
488;DHT22;16586;48.976;9.584;2023-03-01T13:00:14;12.40;29.30
488;DHT22;16586;48.976;9.584;2023-03-01T13:02:49;12.80;30.50
488;DHT22;16586;48.976;9.584;2023-03-01T13:05:24;12.40;30.00
488;DHT22;16586;48.976;9.584;2023-03-01T13:08:00;12.80;30.00
488;DHT22;16586;48.976;9.584;2023-03-01T13:10:34;12.60;30.10
488;DHT22;16586;48.976;9.584;2023-03-01T13:13:25;13.10;30.70
488;DHT22;16586;48.976;9.584;2023-03-01T13:15:53;12.30;30.40
488;DHT22;16586;48.976;9.584;2023-03-01T13:18:32;12.10;30.00
488;DHT22;16586;48.976;9.584;2023-03-01T13:21:01;11.70;30.40
488;DHT22;16586;48.976;9.584;2023-03-01T13:23:31;11.80;31.30
488;DHT22;16586;48.976;9.584;2023-03-01T13:26:13;11.20;32.50
488;DHT22;16586;48.976;9.584;2023-03-01T13:28:51;11.00;32.70
488;DHT22;16586;48.976;9.584;2023-03-01T13:34:43;10.80;33.50
488;DHT22;16586;48.976;9.584;2023-03-01T13:37:18;11.40;35.10
488;DHT22;16586;48.976;9.584;2023-03-01T13:39:45;12.20;34.90
488;DHT22;16586;48.976;9.584;2023-03-01T13:42:32;11.20;32.70
488;DHT22;16586;48.976;9.584;2023-03-01T13:45:01;11.90;33.00
488;DHT22;16586;48.976;9.584;2023-03-01T13:47:28;12.70;34.20
488;DHT22;16586;48.976;9.584;2023-03-01T13:49:56;12.10;33.60
488;DHT22;16586;48.976;9.584;2023-03-01T13:52:35;13.50;34.10
488;DHT22;16586;48.976;9.584;2023-03-01T13:55:16;12.40;33.10
488;DHT22;16586;48.976;9.584;2023-03-01T13:57:45;13.10;33.30
488;DHT22;16586;48.976;9.584;2023-03-01T14:00:31;13.40;34.00
488;DHT22;16586;48.976;9.584;2023-03-01T14:03:10;14.90;32.70
488;DHT22;16586;48.976;9.584;2023-03-01T14:05:38;16.10;30.20
488;DHT22;16586;48.976;9.584;2023-03-01T14:08:19;17.20;29.90
488;DHT22;16586;48.976;9.584;2023-03-01T14:11:16;18.00;28.40
488;DHT22;16586;48.976;9.584;2023-03-01T14:14:07;17.90;27.00
488;DHT22;16586;48.976;9.584;2023-03-01T14:16:45;18.10;26.90
488;DHT22;16586;48.976;9.584;2023-03-01T14:19:16;17.70;26.90
488;DHT22;16586;48.976;9.584;2023-03-01T14:21:46;18.00;28.00
488;DHT22;16586;48.976;9.584;2023-03-01T14:24:21;18.40;28.70
488;DHT22;16586;48.976;9.584;2023-03-01T14:26:49;19.50;28.90
488;DHT22;16586;48.976;9.584;2023-03-01T14:29:28;19.50;26.80
488;DHT22;16586;48.976;9.584;2023-03-01T14:32:17;19.80;26.20
488;DHT22;16586;48.976;9.584;2023-03-01T14:34:46;19.80;25.70
488;DHT22;16586;48.976;9.584;2023-03-01T14:37:22;20.20;26.10
488;DHT22;16586;48.976;9.584;2023-03-01T14:39:50;19.70;25.30
488;DHT22;16586;48.976;9.584;2023-03-01T14:42:17;19.60;25.40
488;DHT22;16586;48.976;9.584;2023-03-01T14:44:47;18.80;25.50
488;DHT22;16586;48.976;9.584;2023-03-01T14:47:23;18.30;25.70
488;DHT22;16586;48.976;9.584;2023-03-01T14:49:57;17.90;26.10
488;DHT22;16586;48.976;9.584;2023-03-01T14:52:32;17.70;26.70
488;DHT22;16586;48.976;9.584;2023-03-01T14:55:03;17.90;26.90
488;DHT22;16586;48.976;9.584;2023-03-01T14:57:30;17.00;26.80
488;DHT22;16586;48.976;9.584;2023-03-01T15:00:06;16.70;27.60
488;DHT22;16586;48.976;9.584;2023-03-01T15:02:35;16.60;27.50
488;DHT22;16586;48.976;9.584;2023-03-01T15:05:04;16.30;27.10
488;DHT22;16586;48.976;9.584;2023-03-01T15:07:35;16.20;27.10
488;DHT22;16586;48.976;9.584;2023-03-01T15:10:05;15.90;27.20
488;DHT22;16586;48.976;9.584;2023-03-01T15:12:36;15.70;28.00
488;DHT22;16586;48.976;9.584;2023-03-01T15:15:32;15.30;27.30
488;DHT22;16586;48.976;9.584;2023-03-01T15:18:02;15.10;27.60
488;DHT22;16586;48.976;9.584;2023-03-01T15:20:33;14.60;28.50
488;DHT22;16586;48.976;9.584;2023-03-01T15:23:03;14.20;29.20
488;DHT22;16586;48.976;9.584;2023-03-01T15:25:32;13.80;29.40
488;DHT22;16586;48.976;9.584;2023-03-01T15:28:02;13.60;30.20
488;DHT22;16586;48.976;9.584;2023-03-01T15:30:33;13.40;30.00
488;DHT22;16586;48.976;9.584;2023-03-01T15:33:20;13.10;30.00
488;DHT22;16586;48.976;9.584;2023-03-01T15:48:46;13.20;30.10
488;DHT22;16586;48.976;9.584;2023-03-01T15:51:27;12.80;30.30
488;DHT22;16586;48.976;9.584;2023-03-01T15:54:18;13.80;30.60
488;DHT22;16586;48.976;9.584;2023-03-01T15:57:14;14.60;32.40
488;DHT22;16586;48.976;9.584;2023-03-01T15:59:41;12.60;30.40
488;DHT22;16586;48.976;9.584;2023-03-01T16:02:17;12.50;31.70
488;DHT22;16586;48.976;9.584;2023-03-01T16:21:21;10.40;32.80
488;DHT22;16586;48.976;9.584;2023-03-01T16:24:21;10.90;33.60
488;DHT22;16586;48.976;9.584;2023-03-01T16:26:48;11.20;33.90
488;DHT22;16586;48.976;9.584;2023-03-01T16:29:15;10.60;35.60
488;DHT22;16586;48.976;9.584;2023-03-01T16:31:42;9.70;36.30
488;DHT22;16586;48.976;9.584;2023-03-01T16:34:09;10.20;34.30
488;DHT22;16586;48.976;9.584;2023-03-01T16:36:37;9.90;35.10
488;DHT22;16586;48.976;9.584;2023-03-01T16:39:04;9.40;33.80
488;DHT22;16586;48.976;9.584;2023-03-01T16:41:32;10.00;35.90
488;DHT22;16586;48.976;9.584;2023-03-01T16:43:58;9.30;36.60
488;DHT22;16586;48.976;9.584;2023-03-01T16:46:27;10.20;36.10
488;DHT22;16586;48.976;9.584;2023-03-01T16:48:54;9.60;36.80
488;DHT22;16586;48.976;9.584;2023-03-01T16:51:22;9.90;37.90
488;DHT22;16586;48.976;9.584;2023-03-01T16:53:51;8.90;36.90
488;DHT22;16586;48.976;9.584;2023-03-01T16:56:18;8.70;37.40
488;DHT22;16586;48.976;9.584;2023-03-01T16:58:45;8.60;36.80
488;DHT22;16586;48.976;9.584;2023-03-01T17:01:14;8.50;38.80
488;DHT22;16586;48.976;9.584;2023-03-01T17:03:42;9.10;38.80
488;DHT22;16586;48.976;9.584;2023-03-01T17:06:11;8.80;38.90
488;DHT22;16586;48.976;9.584;2023-03-01T17:08:38;8.20;39.00
488;DHT22;16586;48.976;9.584;2023-03-01T17:11:09;8.10;38.50
488;DHT22;16586;48.976;9.584;2023-03-01T17:13:36;8.40;40.00
488;DHT22;16586;48.976;9.584;2023-03-01T17:16:05;8.30;40.30
488;DHT22;16586;48.976;9.584;2023-03-01T17:18:32;7.80;39.90